Etusivu
METAR-TAF:

METAR-TAF

Lentoasemat :

Petropavlovsk-Kamtšatski, Venäjä

Leveyspiiri: 53-05N, Pituuspiiri: 158-35E, korkeus merenpinnasta: 24 m

Tämänhetkinen sää

Tämä raportti tehtiin 12 minuuttia sitten, kello 14.00 UTC
Tuuli 10 kn pohjoisesta
Lämpötila -16°C
Kosteus 60%
Ilmanpaine 1006 hPa
Näkyvyys 10 km tai enemmän
Muutamia pilviä 11000 ft:n korkeudessa

METAR: UHPP 231400Z 35005MPS 9999 FEW110 M16/M22 Q1006 R34L/CLRD60 NOSIG RMK QFE751/1002

Aika: 02:12 (14:12 UTC)

Sääennuste

Tämä raportti tehtiin 3 tuntia ja 33 minuuttia sitten, kello 10.39 UTC
Ennuste voimassa 23. päivästä klo 12 UTC - 24. päivään klo 18 UTC
Tuuli 6 kn pohjoisesta puuskistuen 23 kn:hen
Näkyvyys 10 km tai enemmän
Hajanaisia pilviä 5000 ft:n korkeudessa

TAF: UHPP 231039Z 2312/2418 35003G12MPS 9999 SCT050 TXM08/2403Z TNM21/2318Z

Säähavainnot ja -ennusteet yli 4000 lentoasemalta (METAR- ja TAF-raportit).

Käytössä olevat sääasemat on merkitty karttaan keltaisilla ja punaisilla pisteillä.

Aseta hiiri pisteen päälle nähdäksesi sääaseman nimen.

Klikkaa sitten nähdäksesi säähavainnot ja -ennusteet.

Kartan vaihtaminen: klikkaa mustalla rastilla varustettuja vihreitä pisteitä, niin voit zoomata sisään; viivalla varustettua vihreää pistettä, niin voit zoomata ulos tai vihreitä nuolia, niin pääset viereisille kartoille.


METAR-TAF: